METAR Formatted Surface Weather Observation
Issued by NWS Charleston, WV

Home | Current Version | Previous Version | Text Only | Print | Product List | Glossary On
Versions: 1 2 3
000
SAUS41 KRLX 300100 COR
MTRCRW
METAR KCRW 300054Z 00000KT 10SM FEW300 24/22 A3006 RMK AO2 SLP171
T02440222 $



USA.gov is the U.S. government's official web portal to all federal, state and local government web resources and services.